World Is Not Enough — 9HZH8 — position and weather

sailwx.info

Track history (hours):
 
Tides and Currents Weather Stations Pressure Air Temp Water Temp Dewpoint Dewpoint Depression Visibility Wind Speed Wind Dir Waves Ship Positions

World Is Not Enough

Last reported at 2015-Jul-22 14:31 UTC. Time now 2015-Jul-31 05:05 UTC.
Position N 42°24' E 018°29'.
Warning: this ship's position is 8 days out of date.

Length 17 m.

Type: Pleasure craft. MMSI: 256636000.

Date/timePositionNaut miles runAvg speedWind from/ knotsBaromVisibWave heightAir tempDewpointWater temp
2015-Jul-22 14:31N 42°24' E 018°29'8 8.6
2015-Jul-22 13:33N 42°26' E 018°40'1 1.1
2015-Jul-22 12:33N 42°26' E 018°41'0 0.0
2015-Jul-22 11:33N 42°26' E 018°41'0 0.0
2015-Jul-22 10:33N 42°26' E 018°41'0 0.3
2015-Jul-22 09:33N 42°26' E 018°41'0 0.0
2015-Jul-22 08:34N 42°26' E 018°41'0 0.0
2015-Jul-22 07:33N 42°26' E 018°41'0 0.0
2015-Jul-22 06:33N 42°26' E 018°41'0 0.0
2015-Jul-22 01:15N 42°26' E 018°41'0 0.0
2015-Jul-22 00:33N 42°26' E 018°41'0 0.0
2015-Jul-21 23:33N 42°26' E 018°41'0 0.0
2015-Jul-21 22:33N 42°26' E 018°41'0 0.0
2015-Jul-21 21:33N 42°26' E 018°41'0 0.0
2015-Jul-21 20:33N 42°26' E 018°41'6 5.9
2015-Jul-21 19:33N 42°26' E 018°33'1817.4
2015-Jul-21 18:31N 42°16' E 018°53'0 0.0
2015-Jul-21 17:33N 42°16' E 018°53'0 0.0
2015-Jul-21 16:24N 42°16' E 018°53'1416.4
2015-Jul-21 15:33N 42°22' E 018°36'3 1.4
2015-Jul-21 13:33N 42°24' E 018°34'0 0.0
2015-Jul-21 12:22N 42°24' E 018°34'0 0.0
2015-Jul-21 11:34N 42°24' E 018°34'  
2015-Jul-18 16:05N 42°24' E 018°30'1 0.0
2015-Jul-17 10:23N 42°23' E 018°31'7 8.4
2015-Jul-17 09:33N 42°26' E 018°40'1 1.1
2015-Jul-17 08:33N 42°26' E 018°41'14 1.9
2015-Jul-17 01:26N 42°16' E 018°53'0 0.0
2015-Jul-17 00:27N 42°16' E 018°53'0 0.0
2015-Jul-16 23:12N 42°16' E 018°53'0 0.0
2015-Jul-16 22:33N 42°16' E 018°53'0 0.0
2015-Jul-16 18:33N 42°16' E 018°53'0 0.0
2015-Jul-16 17:33N 42°16' E 018°53'0 0.0
2015-Jul-16 16:33N 42°16' E 018°53'0 0.0
2015-Jul-16 15:33N 42°16' E 018°53'7 5.9
2015-Jul-16 14:26N 42°17' E 018°45'12 6.5
2015-Jul-16 12:33N 42°29' E 018°42'2 2.4
2015-Jul-16 11:33N 42°29' E 018°45'0 0.0
2015-Jul-16 10:33N 42°29' E 018°45'0 0.0
2015-Jul-16 09:33N 42°29' E 018°45'0 0.0
2015-Jul-16 08:33N 42°29' E 018°45'0 0.0
2015-Jul-16 07:33N 42°29' E 018°45'0 0.0
2015-Jul-16 06:33N 42°29' E 018°45'0 0.0
2015-Jul-16 05:33N 42°29' E 018°45'0 0.0
2015-Jul-16 04:33N 42°29' E 018°45'0 0.0
2015-Jul-16 03:33N 42°29' E 018°45'0 0.0
2015-Jul-16 02:33N 42°29' E 018°45'0 0.0
2015-Jul-16 01:33N 42°29' E 018°45'0 0.0
2015-Jul-16 00:33N 42°29' E 018°45'0 0.0
2015-Jul-15 23:33N 42°29' E 018°45'0 0.0
2015-Jul-15 22:33N 42°29' E 018°45'0 0.0
2015-Jul-15 21:33N 42°29' E 018°45'0 0.0
2015-Jul-15 20:33N 42°29' E 018°45'0 0.0
2015-Jul-15 19:33N 42°29' E 018°45'0 0.0
2015-Jul-15 18:33N 42°29' E 018°45'0 0.0
2015-Jul-15 17:33N 42°29' E 018°45'0 0.0
2015-Jul-15 16:33N 42°29' E 018°45'0 0.0
2015-Jul-15 15:33N 42°29' E 018°45'0 0.0
2015-Jul-15 14:33N 42°29' E 018°45'0 0.0
2015-Jul-15 13:33N 42°29' E 018°45'0 0.0
2015-Jul-15 12:33N 42°29' E 018°45'0 0.0
2015-Jul-15 11:33N 42°29' E 018°45'4 4.1
2015-Jul-15 10:33N 42°26' E 018°41'0 0.2
2015-Jul-15 09:33N 42°26' E 018°41'6 6.4
2015-Jul-15 08:33N 42°26' E 018°33'  
Track history (hours):
 
Tides and Currents Weather Stations Pressure Air Temp Water Temp Dewpoint Dewpoint Depression Visibility Wind Speed Wind Dir Waves Ship Positions

World Is Not Enough

Last reported at 2015-Jul-22 14:31 UTC. Time now 2015-Jul-31 05:05 UTC.
Position N 42°24' E 018°29'.
Warning: this ship's position is 8 days out of date.

Length 17 m.

Type: Pleasure craft. MMSI: 256636000.

Date/timePositionNaut miles runAvg speedWind from/ knotsBaromVisibWave heightAir tempDewpointWater temp
2015-Jul-22 14:31N 42°24' E 018°29'8 8.6
2015-Jul-22 13:33N 42°26' E 018°40'1 1.1
2015-Jul-22 12:33N 42°26' E 018°41'0 0.0
2015-Jul-22 11:33N 42°26' E 018°41'0 0.0
2015-Jul-22 10:33N 42°26' E 018°41'0 0.3
2015-Jul-22 09:33N 42°26' E 018°41'0 0.0
2015-Jul-22 08:34N 42°26' E 018°41'0 0.0
2015-Jul-22 07:33N 42°26' E 018°41'0 0.0
2015-Jul-22 06:33N 42°26' E 018°41'0 0.0
2015-Jul-22 01:15N 42°26' E 018°41'0 0.0
2015-Jul-22 00:33N 42°26' E 018°41'0 0.0
2015-Jul-21 23:33N 42°26' E 018°41'0 0.0
2015-Jul-21 22:33N 42°26' E 018°41'0 0.0
2015-Jul-21 21:33N 42°26' E 018°41'0 0.0
2015-Jul-21 20:33N 42°26' E 018°41'6 5.9
2015-Jul-21 19:33N 42°26' E 018°33'1817.4
2015-Jul-21 18:31N 42°16' E 018°53'0 0.0
2015-Jul-21 17:33N 42°16' E 018°53'0 0.0
2015-Jul-21 16:24N 42°16' E 018°53'1416.4
2015-Jul-21 15:33N 42°22' E 018°36'3 1.4
2015-Jul-21 13:33N 42°24' E 018°34'0 0.0
2015-Jul-21 12:22N 42°24' E 018°34'0 0.0
2015-Jul-21 11:34N 42°24' E 018°34'  
2015-Jul-18 16:05N 42°24' E 018°30'1 0.0
2015-Jul-17 10:23N 42°23' E 018°31'7 8.4
2015-Jul-17 09:33N 42°26' E 018°40'1 1.1
2015-Jul-17 08:33N 42°26' E 018°41'14 1.9
2015-Jul-17 01:26N 42°16' E 018°53'0 0.0
2015-Jul-17 00:27N 42°16' E 018°53'0 0.0
2015-Jul-16 23:12N 42°16' E 018°53'0 0.0
2015-Jul-16 22:33N 42°16' E 018°53'0 0.0
2015-Jul-16 18:33N 42°16' E 018°53'0 0.0
2015-Jul-16 17:33N 42°16' E 018°53'0 0.0
2015-Jul-16 16:33N 42°16' E 018°53'0 0.0
2015-Jul-16 15:33N 42°16' E 018°53'7 5.9
2015-Jul-16 14:26N 42°17' E 018°45'12 6.5
2015-Jul-16 12:33N 42°29' E 018°42'2 2.4
2015-Jul-16 11:33N 42°29' E 018°45'0 0.0
2015-Jul-16 10:33N 42°29' E 018°45'0 0.0
2015-Jul-16 09:33N 42°29' E 018°45'0 0.0
2015-Jul-16 08:33N 42°29' E 018°45'0 0.0
2015-Jul-16 07:33N 42°29' E 018°45'0 0.0
2015-Jul-16 06:33N 42°29' E 018°45'0 0.0
2015-Jul-16 05:33N 42°29' E 018°45'0 0.0
2015-Jul-16 04:33N 42°29' E 018°45'0 0.0
2015-Jul-16 03:33N 42°29' E 018°45'0 0.0
2015-Jul-16 02:33N 42°29' E 018°45'0 0.0
2015-Jul-16 01:33N 42°29' E 018°45'0 0.0
2015-Jul-16 00:33N 42°29' E 018°45'0 0.0
2015-Jul-15 23:33N 42°29' E 018°45'0 0.0
2015-Jul-15 22:33N 42°29' E 018°45'0 0.0
2015-Jul-15 21:33N 42°29' E 018°45'0 0.0
2015-Jul-15 20:33N 42°29' E 018°45'0 0.0
2015-Jul-15 19:33N 42°29' E 018°45'0 0.0
2015-Jul-15 18:33N 42°29' E 018°45'0 0.0
2015-Jul-15 17:33N 42°29' E 018°45'0 0.0
2015-Jul-15 16:33N 42°29' E 018°45'0 0.0
2015-Jul-15 15:33N 42°29' E 018°45'0 0.0
2015-Jul-15 14:33N 42°29' E 018°45'0 0.0
2015-Jul-15 13:33N 42°29' E 018°45'0 0.0
2015-Jul-15 12:33N 42°29' E 018°45'0 0.0
2015-Jul-15 11:33N 42°29' E 018°45'4 4.1
2015-Jul-15 10:33N 42°26' E 018°41'0 0.2
2015-Jul-15 09:33N 42°26' E 018°41'6 6.4
2015-Jul-15 08:33N 42°26' E 018°33'  

Dump ship's entire track history